createdAt,value
2023-05-05T00:00:03.784Z,54.5896
2023-05-05T00:01:06.126Z,54.9177
2023-05-05T00:02:08.451Z,55.1852
2023-05-05T00:03:10.817Z,55.5742
2023-05-05T00:04:13.120Z,55.3996
2023-05-05T00:05:15.451Z,55.3792
2023-05-05T00:06:17.767Z,55.3725
2023-05-05T00:07:20.128Z,55.3248
2023-05-05T00:08:22.472Z,55.4127
2023-05-05T00:09:24.793Z,55.4462
2023-05-05T00:10:27.151Z,55.3714
2023-05-05T00:11:29.480Z,55.1697
2023-05-05T00:12:31.887Z,55.3299
2023-05-05T00:13:34.232Z,55.5854
2023-05-05T00:14:36.486Z,55.8708
2023-05-05T00:15:38.787Z,56.0744
2023-05-05T00:16:41.158Z,55.9317
2023-05-05T00:17:43.576Z,55.9041
2023-05-05T00:18:45.794Z,55.7647
2023-05-05T00:19:48.176Z,55.7965
2023-05-05T00:20:50.511Z,56.0716
2023-05-05T00:21:52.850Z,56.3297
2023-05-05T00:22:55.152Z,56.3909
2023-05-05T00:23:57.999Z,56.2902
2023-05-05T00:25:00.753Z,56.2106
2023-05-05T00:26:02.164Z,56.1532
2023-05-05T00:27:04.523Z,56.3176
2023-05-05T00:28:06.857Z,56.3786
2023-05-05T00:29:09.203Z,56.2503
2023-05-05T00:30:11.508Z,56.2902
2023-05-05T00:31:13.936Z,56.3613
2023-05-05T00:32:16.225Z,56.2587
2023-05-05T00:33:18.544Z,56.3565
2023-05-05T00:34:20.884Z,56.5718
2023-05-05T00:35:23.221Z,56.8428
2023-05-05T00:36:25.639Z,56.8190
2023-05-05T00:37:27.929Z,56.5817
2023-05-05T00:38:30.322Z,56.4093
2023-05-05T00:39:32.652Z,56.6662
2023-05-05T00:40:34.984Z,56.5474
2023-05-05T00:41:37.286Z,56.6883
2023-05-05T00:42:39.630Z,56.5357
2023-05-05T00:43:42.049Z,54.5491
2023-05-05T00:44:44.319Z,53.8467
2023-05-05T00:45:46.666Z,55.3141
2023-05-05T00:46:49.515Z,55.5618
2023-05-05T00:47:51.491Z,54.5925
2023-05-05T00:48:54.196Z,55.3122
2023-05-05T00:49:56.393Z,55.0658
2023-05-05T00:50:58.312Z,53.1369
2023-05-05T00:52:00.671Z,53.8138
2023-05-05T00:53:03.035Z,53.4556
2023-05-05T00:54:05.401Z,53.9885
2023-05-05T00:55:08.055Z,54.0006
2023-05-05T00:56:10.074Z,53.4729
2023-05-05T00:57:12.825Z,53.6876
2023-05-05T00:58:15.201Z,53.8571
2023-05-05T00:59:17.411Z,53.6068
2023-05-05T01:00:19.359Z,54.2391
2023-05-05T01:01:21.788Z,54.0563
2023-05-05T01:02:24.079Z,55.7324
2023-05-05T01:03:26.912Z,56.1185
2023-05-05T01:04:28.764Z,56.2341
2023-05-05T01:05:31.216Z,56.3417
2023-05-05T01:06:34.079Z,56.1519
2023-05-05T01:07:36.557Z,56.2014
2023-05-05T01:08:38.062Z,56.4325
2023-05-05T01:09:40.400Z,56.4771
2023-05-05T01:10:42.765Z,56.4029
2023-05-05T01:11:45.058Z,56.5263
2023-05-05T01:12:47.498Z,56.4788
2023-05-05T01:13:49.784Z,56.5002
2023-05-05T01:14:52.102Z,56.7864
2023-05-05T01:15:54.434Z,56.8131
2023-05-05T01:16:56.785Z,56.6210
2023-05-05T01:17:59.132Z,56.7454
2023-05-05T01:19:01.419Z,56.8396
2023-05-05T01:20:03.751Z,57.0874
2023-05-05T01:21:06.102Z,57.0312
2023-05-05T01:22:08.569Z,57.1352
2023-05-05T01:23:10.781Z,57.3116
2023-05-05T01:24:13.225Z,57.0823
2023-05-05T01:25:15.514Z,56.9789
2023-05-05T01:26:17.808Z,57.1166
2023-05-05T01:27:20.140Z,57.4096
2023-05-05T01:28:22.448Z,57.6232
2023-05-05T01:29:24.787Z,57.6663
2023-05-05T01:30:27.127Z,57.9759
2023-05-05T01:31:29.460Z,58.1102
2023-05-05T01:32:31.858Z,57.5459
2023-05-05T01:33:34.268Z,57.2025
2023-05-05T01:34:36.438Z,57.2781
2023-05-05T01:35:38.755Z,57.3486
2023-05-05T01:36:41.077Z,57.5813
2023-05-05T01:37:43.478Z,57.7477
2023-05-05T01:38:46.376Z,57.5543
2023-05-05T01:39:48.252Z,57.6215
2023-05-05T01:40:50.470Z,57.9443
2023-05-05T01:41:52.871Z,58.0766
2023-05-05T01:42:55.536Z,58.0746
2023-05-05T01:43:57.435Z,58.0504
2023-05-05T01:44:59.834Z,57.9359
2023-05-05T01:46:02.139Z,57.9618
2023-05-05T01:47:04.445Z,58.1976
2023-05-05T01:48:06.774Z,58.1110
2023-05-05T01:49:09.077Z,58.3357
2023-05-05T01:50:11.424Z,58.2944
2023-05-05T01:51:13.770Z,58.1395
2023-05-05T01:52:16.106Z,58.3213
2023-05-05T01:53:18.425Z,58.4972
2023-05-05T01:54:20.738Z,58.4599
2023-05-05T01:55:23.083Z,58.4667
2023-05-05T01:56:25.418Z,58.4222
2023-05-05T01:57:27.778Z,58.6089
2023-05-05T01:58:30.126Z,58.8679
2023-05-05T01:59:32.510Z,58.6941
2023-05-05T02:00:34.777Z,58.2184
2023-05-05T02:01:37.147Z,58.0353
2023-05-05T02:02:39.546Z,58.2880
2023-05-05T02:03:41.778Z,58.2253
2023-05-05T02:04:44.097Z,58.2493
2023-05-05T02:05:46.597Z,58.5220
2023-05-05T02:06:48.780Z,58.3349
2023-05-05T02:07:51.087Z,58.0848
2023-05-05T02:08:53.471Z,57.9846
2023-05-05T02:09:55.753Z,58.0376
2023-05-05T02:10:58.129Z,58.1648
2023-05-05T02:12:00.462Z,58.2706
2023-05-05T02:13:02.824Z,58.2789
2023-05-05T02:14:05.148Z,58.3530
2023-05-05T02:15:07.470Z,58.2310
2023-05-05T02:16:09.841Z,58.1730
2023-05-05T02:17:12.140Z,58.0931
2023-05-05T02:18:14.476Z,57.7447
2023-05-05T02:19:16.790Z,58.0192
2023-05-05T02:20:19.098Z,58.2194
2023-05-05T02:21:21.486Z,58.1434
2023-05-05T02:22:23.807Z,58.1000
2023-05-05T02:23:26.147Z,58.1153
2023-05-05T02:24:28.520Z,57.9447
2023-05-05T02:25:30.775Z,58.1372
2023-05-05T02:26:33.165Z,58.1970
2023-05-05T02:27:35.468Z,58.1061
2023-05-05T02:28:37.831Z,58.3761
2023-05-05T02:29:40.164Z,58.4769
2023-05-05T02:30:42.492Z,58.3582
2023-05-05T02:31:44.964Z,58.3391
2023-05-05T02:32:47.214Z,58.4862
2023-05-05T02:33:49.498Z,58.4386
2023-05-05T02:34:51.822Z,58.4329
2023-05-05T02:35:54.126Z,58.4529
2023-05-05T02:36:56.468Z,58.5142
2023-05-05T02:37:58.786Z,58.2659
2023-05-05T02:39:01.135Z,58.5195
2023-05-05T02:40:03.501Z,58.5555
2023-05-05T02:41:05.791Z,58.1167
2023-05-05T02:42:08.182Z,58.1523
2023-05-05T02:43:10.568Z,57.9736
2023-05-05T02:44:12.815Z,57.8577
2023-05-05T02:45:15.176Z,58.0601
2023-05-05T02:46:17.491Z,58.1011
2023-05-05T02:47:19.828Z,57.9704
2023-05-05T02:48:22.137Z,58.2755
2023-05-05T02:49:24.517Z,58.0154
2023-05-05T02:50:26.858Z,58.2799
2023-05-05T02:51:29.177Z,58.5504
2023-05-05T02:52:31.559Z,58.5358
2023-05-05T02:53:33.796Z,58.5478
2023-05-05T02:54:36.130Z,58.2981
2023-05-05T02:55:38.480Z,58.3035
2023-05-05T02:56:40.802Z,58.2395
2023-05-05T02:57:43.166Z,58.4960
2023-05-05T02:58:45.470Z,58.7229
2023-05-05T02:59:47.814Z,58.7355
2023-05-05T03:00:50.136Z,58.7139
2023-05-05T03:01:52.558Z,58.5301
2023-05-05T03:02:54.947Z,58.5188
2023-05-05T03:03:57.322Z,58.7113
2023-05-05T03:04:59.482Z,58.7537
2023-05-05T03:06:01.858Z,58.7301
2023-05-05T03:07:04.146Z,58.7188
2023-05-05T03:08:06.508Z,58.5678
2023-05-05T03:09:08.862Z,58.4959
2023-05-05T03:10:11.184Z,58.9474
2023-05-05T03:11:13.528Z,59.0832
2023-05-05T03:12:15.844Z,59.0953
2023-05-05T03:13:18.196Z,58.9557
2023-05-05T03:14:20.502Z,58.7650
2023-05-05T03:15:22.847Z,58.7277
2023-05-05T03:16:25.214Z,58.8095
2023-05-05T03:17:27.501Z,59.1883
2023-05-05T03:18:29.835Z,59.5297
2023-05-05T03:19:32.171Z,59.3920
2023-05-05T03:20:34.486Z,59.0848
2023-05-05T03:21:36.816Z,59.0578
2023-05-05T03:22:39.305Z,59.2069
2023-05-05T03:23:41.485Z,59.3568
2023-05-05T03:24:43.796Z,59.4059
2023-05-05T03:25:46.165Z,59.3342
2023-05-05T03:26:48.495Z,59.4305
2023-05-05T03:27:50.784Z,59.3438
2023-05-05T03:28:53.156Z,59.3870
2023-05-05T03:29:55.473Z,59.0972
2023-05-05T03:30:57.822Z,59.1882
2023-05-05T03:32:00.181Z,59.1997
2023-05-05T03:33:02.521Z,59.2522
2023-05-05T03:34:04.802Z,59.4069
2023-05-05T03:35:07.126Z,59.4926
2023-05-05T03:36:09.489Z,59.3719
2023-05-05T03:37:11.840Z,59.4484
2023-05-05T03:38:14.154Z,59.4644
2023-05-05T03:39:16.521Z,59.4411
2023-05-05T03:40:18.827Z,59.2906
2023-05-05T03:41:21.142Z,59.1533
2023-05-05T03:42:23.510Z,59.1462
2023-05-05T03:43:25.927Z,59.1495
2023-05-05T03:44:28.202Z,59.4044
2023-05-05T03:45:30.505Z,59.2715
2023-05-05T03:46:32.803Z,59.3265
2023-05-05T03:47:35.322Z,59.1209
2023-05-05T03:48:37.510Z,59.2072
2023-05-05T03:49:39.839Z,59.4979
2023-05-05T03:50:42.142Z,59.5912
2023-05-05T03:51:44.484Z,59.7899
2023-05-05T03:52:46.807Z,59.8461
2023-05-05T03:53:49.179Z,59.9615
2023-05-05T03:54:51.486Z,59.8058
2023-05-05T03:55:53.811Z,59.2760
2023-05-05T03:56:56.174Z,58.6726
2023-05-05T03:57:58.514Z,58.6740
2023-05-05T03:59:00.889Z,58.6447
2023-05-05T04:00:03.185Z,58.6236
2023-05-05T04:01:05.526Z,58.4662
2023-05-05T04:02:07.940Z,58.5405
2023-05-05T04:03:10.412Z,58.8556
2023-05-05T04:04:12.657Z,58.8901
2023-05-05T04:05:14.896Z,59.0147
2023-05-05T04:06:17.183Z,58.8551
2023-05-05T04:07:19.526Z,58.9159
2023-05-05T04:08:21.844Z,58.8590
2023-05-05T04:09:24.204Z,58.7550
2023-05-05T04:10:26.566Z,58.6790
2023-05-05T04:11:28.874Z,58.5840
2023-05-05T04:12:31.252Z,58.3902
2023-05-05T04:13:33.538Z,57.9795
2023-05-05T04:14:35.894Z,57.6019
2023-05-05T04:15:38.261Z,57.4730
2023-05-05T04:16:40.859Z,57.3440
2023-05-05T04:17:42.945Z,57.2334
2023-05-05T04:18:45.431Z,57.5004
2023-05-05T04:19:47.577Z,57.4081
2023-05-05T04:20:49.920Z,57.2432
2023-05-05T04:21:52.480Z,57.3809
2023-05-05T04:22:54.547Z,57.6357
2023-05-05T04:23:56.936Z,57.6859
2023-05-05T04:24:59.660Z,57.5968
2023-05-05T04:26:01.599Z,57.4671
2023-05-05T04:27:03.896Z,57.4811
2023-05-05T04:28:06.240Z,57.7740
2023-05-05T04:29:08.552Z,57.8173
2023-05-05T04:30:10.913Z,57.8669
2023-05-05T04:31:13.329Z,57.7936
2023-05-05T04:32:15.950Z,57.7154
2023-05-05T04:33:18.019Z,57.6922
2023-05-05T04:34:20.412Z,57.3476
2023-05-05T04:35:22.670Z,57.0819
2023-05-05T04:36:24.950Z,57.1837
2023-05-05T04:37:27.309Z,57.1003
2023-05-05T04:38:29.697Z,57.6137
2023-05-05T04:39:31.954Z,57.9109
2023-05-05T04:40:34.326Z,57.9184
2023-05-05T04:41:36.751Z,57.9468
2023-05-05T04:42:39.080Z,57.8271
2023-05-05T04:43:41.388Z,57.5696
2023-05-05T04:44:43.752Z,56.6563
2023-05-05T04:45:46.456Z,57.0281
2023-05-05T04:46:48.486Z,56.6273
2023-05-05T04:47:51.028Z,55.4108
2023-05-05T04:48:53.075Z,56.3619
2023-05-05T04:49:55.440Z,57.3020
2023-05-05T04:50:57.838Z,56.5946
2023-05-05T04:52:00.169Z,55.9105
2023-05-05T04:53:02.453Z,55.1814
2023-05-05T04:54:04.800Z,54.6363
2023-05-05T04:55:07.154Z,54.2562
2023-05-05T04:56:09.491Z,53.9713
2023-05-05T04:57:11.875Z,55.5091
2023-05-05T04:58:14.188Z,55.4076
2023-05-05T04:59:16.529Z,54.0363
2023-05-05T05:00:18.837Z,53.9108
2023-05-05T05:01:21.255Z,55.7396
2023-05-05T05:02:24.079Z,57.1380
2023-05-05T05:03:26.010Z,57.3764
2023-05-05T05:04:29.534Z,57.1057
2023-05-05T05:05:30.576Z,56.3592
2023-05-05T05:06:32.915Z,56.3227
2023-05-05T05:07:35.260Z,56.2596
2023-05-05T05:08:37.561Z,55.8305
2023-05-05T05:09:39.934Z,55.5807
2023-05-05T05:10:42.250Z,55.6436
2023-05-05T05:11:44.603Z,55.6408
2023-05-05T05:12:46.962Z,55.3347
2023-05-05T05:13:49.287Z,55.2157
2023-05-05T05:14:51.628Z,55.7072
2023-05-05T05:15:53.938Z,55.8284
2023-05-05T05:16:56.312Z,56.2058
2023-05-05T05:17:58.652Z,56.5924
2023-05-05T05:19:01.823Z,56.4356
2023-05-05T05:20:03.341Z,56.0550
2023-05-05T05:21:05.664Z,56.7554
2023-05-05T05:22:08.018Z,56.7500
2023-05-05T05:23:10.358Z,57.0632
2023-05-05T05:24:12.735Z,56.9507
2023-05-05T05:25:14.999Z,56.9258
2023-05-05T05:26:17.343Z,57.0478
2023-05-05T05:27:19.688Z,57.5452
2023-05-05T05:28:22.033Z,57.5589
2023-05-05T05:29:24.326Z,57.4513
2023-05-05T05:30:26.678Z,57.1727
2023-05-05T05:31:29.016Z,57.4267
2023-05-05T05:32:31.371Z,58.0001
2023-05-05T05:33:33.728Z,56.6115
2023-05-05T05:34:36.039Z,56.8201
2023-05-05T05:35:38.396Z,56.3903
2023-05-05T05:36:40.723Z,56.6961
2023-05-05T05:37:43.021Z,57.0735
2023-05-05T05:38:45.436Z,57.0708
2023-05-05T05:39:47.743Z,55.8006
2023-05-05T05:40:50.056Z,54.8775
2023-05-05T05:41:52.381Z,54.8511
2023-05-05T05:42:54.741Z,55.1974
2023-05-05T05:43:57.076Z,55.3716
2023-05-05T05:44:59.402Z,55.8466
2023-05-05T05:46:01.874Z,55.9060
2023-05-05T05:47:04.060Z,56.3924
2023-05-05T05:48:06.419Z,56.4072
2023-05-05T05:49:08.748Z,56.2730
2023-05-05T05:50:11.194Z,55.6916
2023-05-05T05:51:13.450Z,55.6024
2023-05-05T05:52:15.788Z,56.1543
2023-05-05T05:53:18.133Z,56.0090
2023-05-05T05:54:20.507Z,55.8938
2023-05-05T05:55:22.810Z,54.3079
2023-05-05T05:56:25.155Z,55.0760
2023-05-05T05:57:27.477Z,54.2112
2023-05-05T05:58:29.934Z,54.7333
2023-05-05T05:59:32.177Z,54.2949
2023-05-05T06:00:34.539Z,55.0103
2023-05-05T06:01:36.916Z,55.4269
2023-05-05T06:02:39.268Z,55.5153
2023-05-05T06:03:41.606Z,55.0468
2023-05-05T06:04:43.920Z,54.7079
2023-05-05T06:05:46.196Z,55.5195
2023-05-05T06:06:48.523Z,55.8697
2023-05-05T06:07:50.876Z,55.8642
2023-05-05T06:08:53.211Z,56.3462
2023-05-05T06:09:55.579Z,54.9048
2023-05-05T06:10:57.888Z,54.8359
2023-05-05T06:12:00.228Z,55.0091
2023-05-05T06:13:02.557Z,54.1922
2023-05-05T06:14:04.874Z,53.0018
2023-05-05T06:15:07.229Z,53.0192
2023-05-05T06:16:09.698Z,53.7793
2023-05-05T06:17:11.948Z,53.7926
2023-05-05T06:18:14.350Z,53.8194
2023-05-05T06:19:16.631Z,53.0569
2023-05-05T06:20:18.948Z,52.4853
2023-05-05T06:21:21.251Z,52.4827
2023-05-05T06:22:23.591Z,52.0957
2023-05-05T06:23:25.967Z,51.3017
2023-05-05T06:24:28.328Z,51.4416
2023-05-05T06:25:30.649Z,51.8347
2023-05-05T06:26:32.959Z,51.7527
2023-05-05T06:27:35.304Z,52.1707
2023-05-05T06:28:37.699Z,51.4314
2023-05-05T06:29:40.057Z,51.0786
2023-05-05T06:30:42.364Z,51.3937
2023-05-05T06:31:44.716Z,51.5984
2023-05-05T06:32:47.039Z,51.1900
2023-05-05T06:33:49.388Z,50.8079
2023-05-05T06:34:51.702Z,51.3645
2023-05-05T06:35:54.026Z,51.6509
2023-05-05T06:36:56.399Z,51.2700
2023-05-05T06:37:58.755Z,50.5059
2023-05-05T06:39:01.056Z,50.3149
2023-05-05T06:40:03.402Z,51.0270
2023-05-05T06:41:05.748Z,52.0771
2023-05-05T06:42:08.097Z,51.6397
2023-05-05T06:43:10.423Z,50.9733
2023-05-05T06:44:12.807Z,50.5991
2023-05-05T06:45:15.107Z,50.1964
2023-05-05T06:46:17.533Z,49.5042
2023-05-05T06:47:19.814Z,49.6949
2023-05-05T06:48:22.122Z,49.6792
2023-05-05T06:49:24.499Z,49.8227
2023-05-05T06:50:26.861Z,49.5928
2023-05-05T06:51:29.180Z,49.4014
2023-05-05T06:52:31.479Z,50.1496
2023-05-05T06:53:33.844Z,50.7102
2023-05-05T06:54:36.160Z,50.4192
2023-05-05T06:55:38.581Z,50.4103
2023-05-05T06:56:40.883Z,48.7665
2023-05-05T06:57:43.220Z,48.9972
2023-05-05T06:58:45.515Z,49.3403
2023-05-05T06:59:48.112Z,49.5001
2023-05-05T07:00:50.257Z,49.6508
2023-05-05T07:01:52.544Z,49.4347
2023-05-05T07:02:54.909Z,49.0228
2023-05-05T07:03:57.304Z,49.2386
2023-05-05T07:04:59.555Z,49.1518
2023-05-05T07:06:01.888Z,49.3465
2023-05-05T07:07:04.268Z,49.4906
2023-05-05T07:08:06.567Z,50.5167
2023-05-05T07:09:08.927Z,49.9560
2023-05-05T07:10:11.259Z,48.9725
2023-05-05T07:11:13.624Z,49.3615
2023-05-05T07:12:15.958Z,49.2116
2023-05-05T07:13:18.381Z,48.8571
2023-05-05T07:14:21.536Z,48.3733
2023-05-05T07:15:28.154Z,48.3817
2023-05-05T07:16:25.325Z,48.1887
2023-05-05T07:17:27.674Z,47.9471
2023-05-05T07:18:30.018Z,48.0397
2023-05-05T07:19:32.362Z,48.1190
2023-05-05T07:20:34.720Z,47.4245
2023-05-05T07:21:36.997Z,46.0564
2023-05-05T07:22:39.392Z,46.1287
2023-05-05T07:23:41.718Z,46.2965
2023-05-05T07:24:44.066Z,47.3502
2023-05-05T07:25:46.389Z,47.2659
2023-05-05T07:26:48.721Z,45.9475
2023-05-05T07:27:51.102Z,46.6271
2023-05-05T07:28:53.403Z,46.3722
2023-05-05T07:29:55.789Z,45.9062
2023-05-05T07:30:58.259Z,46.1732
2023-05-05T07:32:00.479Z,46.4009
2023-05-05T07:33:02.959Z,46.4746
2023-05-05T07:34:05.130Z,45.7058
2023-05-05T07:35:07.482Z,45.9460
2023-05-05T07:36:09.820Z,45.3035
2023-05-05T07:37:12.233Z,45.9702
2023-05-05T07:38:14.545Z,46.0865
2023-05-05T07:39:16.876Z,46.8602
2023-05-05T07:40:19.198Z,46.9457
2023-05-05T07:41:21.565Z,46.1957
2023-05-05T07:42:23.894Z,46.0804
2023-05-05T07:43:26.288Z,46.5048
2023-05-05T07:44:28.627Z,45.2041
2023-05-05T07:45:30.963Z,46.2625
2023-05-05T07:46:33.521Z,45.7329
2023-05-05T07:47:35.675Z,44.9753
2023-05-05T07:48:37.989Z,45.4565
2023-05-05T07:49:40.359Z,44.3124
2023-05-05T07:50:42.744Z,43.5898
2023-05-05T07:51:45.063Z,43.6601
2023-05-05T07:52:51.722Z,44.6978
2023-05-05T07:53:49.761Z,44.6415
2023-05-05T07:54:52.096Z,43.1617
2023-05-05T07:55:54.398Z,43.2928
2023-05-05T07:56:56.741Z,42.8284
2023-05-05T07:57:59.119Z,42.3640
2023-05-05T07:59:01.480Z,41.5823
2023-05-05T08:00:03.831Z,41.7903
2023-05-05T08:01:06.159Z,43.0234
2023-05-05T08:02:08.563Z,42.2505
2023-05-05T08:03:12.022Z,43.2076
2023-05-05T08:04:13.312Z,43.3475
2023-05-05T08:05:15.576Z,42.2331
2023-05-05T08:06:17.857Z,41.4725
2023-05-05T08:07:20.261Z,41.2474
2023-05-05T08:08:22.556Z,41.2067
2023-05-05T08:09:24.937Z,40.4467
2023-05-05T08:10:27.253Z,41.0757
2023-05-05T08:11:29.758Z,41.7403
2023-05-05T08:12:31.956Z,42.1564
2023-05-05T08:13:34.339Z,42.6158
2023-05-05T08:14:36.669Z,41.8146
2023-05-05T08:15:39.042Z,41.1120
2023-05-05T08:16:41.378Z,40.4016
2023-05-05T08:17:43.774Z,39.3580
2023-05-05T08:18:46.060Z,38.9919
2023-05-05T08:19:48.413Z,39.7527
2023-05-05T08:20:50.740Z,40.4734
2023-05-05T08:21:53.058Z,41.0634
2023-05-05T08:22:55.456Z,41.3162
2023-05-05T08:23:57.800Z,41.4601
2023-05-05T08:25:00.164Z,42.1758
2023-05-05T08:26:02.507Z,41.2693
2023-05-05T08:27:04.833Z,40.6476
2023-05-05T08:28:07.142Z,40.5641
2023-05-05T08:29:09.560Z,40.4571
2023-05-05T08:30:11.883Z,38.9553
2023-05-05T08:31:14.341Z,38.8478
2023-05-05T08:32:16.591Z,38.3853
2023-05-05T08:33:19.023Z,37.8926
2023-05-05T08:34:21.294Z,38.0262
2023-05-05T08:35:23.647Z,38.8554
2023-05-05T08:36:25.985Z,39.3234
2023-05-05T08:37:28.295Z,38.5877
2023-05-05T08:38:30.645Z,39.2399
2023-05-05T08:39:32.987Z,39.1480
2023-05-05T08:40:35.331Z,38.9476
2023-05-05T08:41:37.693Z,38.1511
2023-05-05T08:42:40.025Z,37.8301
2023-05-05T08:43:42.383Z,38.2947
2023-05-05T08:44:44.743Z,38.3198
2023-05-05T08:45:47.083Z,37.1162
2023-05-05T08:46:49.585Z,38.0353
2023-05-05T08:47:51.928Z,37.7666
2023-05-05T08:48:54.288Z,36.8142
2023-05-05T08:49:56.558Z,37.3325
2023-05-05T08:51:00.349Z,36.7020
2023-05-05T08:52:01.292Z,36.9564
2023-05-05T08:53:03.741Z,37.0915
2023-05-05T08:54:05.966Z,37.9331
2023-05-05T08:55:08.480Z,37.5807
2023-05-05T08:56:10.650Z,38.4229
2023-05-05T08:57:13.042Z,38.3874
2023-05-05T08:58:15.353Z,37.6631
2023-05-05T08:59:17.698Z,36.8911
2023-05-05T09:00:20.053Z,36.4170
2023-05-05T09:01:22.418Z,36.4278
2023-05-05T09:02:25.057Z,36.3890
2023-05-05T09:03:27.154Z,36.9790
2023-05-05T09:04:29.653Z,35.8556
2023-05-05T09:05:31.821Z,37.0386
2023-05-05T09:06:34.239Z,37.4476
2023-05-05T09:07:36.552Z,36.3025
2023-05-05T09:08:38.874Z,36.2585
2023-05-05T09:09:41.216Z,35.6449
2023-05-05T09:10:43.555Z,37.1086
2023-05-05T09:11:45.908Z,36.7212
2023-05-05T09:12:48.301Z,37.3649
2023-05-05T09:13:50.614Z,36.9277
2023-05-05T09:14:52.965Z,35.8498
2023-05-05T09:15:55.330Z,36.4203
2023-05-05T09:16:57.756Z,37.0668
2023-05-05T09:18:00.083Z,37.3529
2023-05-05T09:19:02.361Z,38.1985
2023-05-05T09:20:04.780Z,37.7356
2023-05-05T09:21:07.065Z,37.3097
2023-05-05T09:22:09.422Z,36.6024
2023-05-05T09:23:11.761Z,36.8800
2023-05-05T09:24:14.102Z,37.1860
2023-05-05T09:25:16.483Z,37.5289
2023-05-05T09:26:18.796Z,38.0510
2023-05-05T09:27:21.176Z,38.7600
2023-05-05T09:28:23.531Z,37.0446
2023-05-05T09:29:25.848Z,37.4383
2023-05-05T09:30:28.224Z,38.3116
2023-05-05T09:31:30.760Z,38.0275
2023-05-05T09:32:32.916Z,38.2382
2023-05-05T09:33:35.250Z,38.3859
2023-05-05T09:34:37.586Z,38.5679
2023-05-05T09:35:40.054Z,38.0962
2023-05-05T09:36:42.328Z,37.8244
2023-05-05T09:37:44.629Z,37.4235
2023-05-05T09:38:47.037Z,37.5148
2023-05-05T09:39:49.322Z,37.1913
2023-05-05T09:40:51.673Z,37.4899
2023-05-05T09:41:54.033Z,37.3424
2023-05-05T09:42:56.368Z,37.6424
2023-05-05T09:43:58.957Z,37.8618
2023-05-05T09:45:01.785Z,37.9024
2023-05-05T09:46:03.620Z,39.1247
2023-05-05T09:47:18.171Z,38.9226
2023-05-05T09:48:08.396Z,38.5210
2023-05-05T09:49:19.588Z,38.5820
2023-05-05T09:50:13.296Z,37.5577
2023-05-05T09:51:15.488Z,38.2084
2023-05-05T09:52:17.941Z,39.1787
2023-05-05T09:53:20.110Z,40.4254
2023-05-05T09:54:22.266Z,39.5965
2023-05-05T09:55:25.055Z,38.1034
2023-05-05T09:56:27.532Z,37.6892
2023-05-05T09:57:29.320Z,38.3966
2023-05-05T09:58:31.767Z,38.0448
2023-05-05T09:59:34.433Z,39.0286
2023-05-05T10:00:37.646Z,38.8964
2023-05-05T10:01:38.773Z,37.4749
2023-05-05T10:02:41.039Z,37.6488
2023-05-05T10:03:44.035Z,38.1509
2023-05-05T10:04:45.940Z,38.0954
2023-05-05T10:05:48.370Z,38.2370
2023-05-05T10:06:50.453Z,38.3570
2023-05-05T10:07:53.641Z,38.4668
2023-05-05T10:08:55.123Z,39.5232
2023-05-05T10:09:57.492Z,39.6264
2023-05-05T10:10:59.822Z,38.4410
2023-05-05T10:12:02.325Z,38.9445
2023-05-05T10:13:04.703Z,38.0351
2023-05-05T10:14:08.246Z,38.0570
2023-05-05T10:15:10.291Z,39.0813
2023-05-05T10:16:12.018Z,38.1767
2023-05-05T10:17:14.293Z,38.6128
2023-05-05T10:18:16.443Z,38.6370
2023-05-05T10:19:19.048Z,38.8624
2023-05-05T10:20:21.170Z,38.5429
2023-05-05T10:21:23.661Z,37.5907
2023-05-05T10:22:26.227Z,37.5365
2023-05-05T10:23:29.383Z,37.9156
2023-05-05T10:24:31.371Z,39.4826
2023-05-05T10:25:33.007Z,38.8117
2023-05-05T10:26:35.535Z,39.1020
2023-05-05T10:27:38.162Z,38.6901
2023-05-05T10:28:39.787Z,38.4071
2023-05-05T10:29:42.410Z,38.4336
2023-05-05T10:30:44.481Z,38.4172
2023-05-05T10:31:47.006Z,38.5752
2023-05-05T10:32:56.009Z,38.6880
2023-05-05T10:33:52.796Z,38.4714
2023-05-05T10:34:54.635Z,37.2679
2023-05-05T10:35:57.389Z,37.4328
2023-05-05T10:36:58.583Z,38.1377
2023-05-05T10:38:02.161Z,37.9794
2023-05-05T10:39:03.281Z,38.0783
2023-05-05T10:40:06.232Z,39.0475
2023-05-05T10:41:07.929Z,39.1568
2023-05-05T10:42:10.357Z,38.5837
2023-05-05T10:43:12.670Z,38.3039
2023-05-05T10:44:15.073Z,38.3547
2023-05-05T10:45:17.341Z,39.0625
2023-05-05T10:46:19.800Z,39.1196
2023-05-05T10:47:22.095Z,39.1495
2023-05-05T10:48:24.412Z,39.1961
2023-05-05T10:49:26.749Z,37.7911
2023-05-05T10:50:29.104Z,38.2803
2023-05-05T10:51:39.893Z,37.8491
2023-05-05T10:52:33.824Z,38.9385
2023-05-05T10:53:36.215Z,38.6828
2023-05-05T10:54:38.622Z,38.2459
2023-05-05T10:55:40.852Z,38.2573
2023-05-05T10:56:43.201Z,37.8457
2023-05-05T10:57:45.556Z,37.7057
2023-05-05T10:58:59.581Z,37.3751
2023-05-05T10:59:50.210Z,37.4797
2023-05-05T11:00:52.652Z,36.0922
2023-05-05T11:01:54.926Z,36.8876
2023-05-05T11:02:57.344Z,37.5474
2023-05-05T11:03:59.712Z,37.8367
2023-05-05T11:05:01.948Z,37.1307
2023-05-05T11:06:04.309Z,37.0584
2023-05-05T11:07:06.652Z,36.7041
2023-05-05T11:08:08.980Z,36.3393
2023-05-05T11:09:11.395Z,36.4690
2023-05-05T11:10:13.749Z,35.8542
2023-05-05T11:11:16.053Z,36.5093
2023-05-05T11:12:18.417Z,36.3929
2023-05-05T11:13:20.902Z,37.0598
2023-05-05T11:14:23.253Z,37.0823
2023-05-05T11:15:25.453Z,37.4202
2023-05-05T11:16:27.823Z,37.3907
2023-05-05T11:17:30.136Z,35.9837
2023-05-05T11:18:32.501Z,35.5700
2023-05-05T11:19:34.819Z,35.4800
2023-05-05T11:20:37.213Z,35.6423
2023-05-05T11:21:39.560Z,35.5596
2023-05-05T11:22:41.856Z,33.8070
2023-05-05T11:23:44.270Z,34.8838
2023-05-05T11:24:46.814Z,35.4146
2023-05-05T11:25:48.913Z,35.5362
2023-05-05T11:26:51.292Z,34.4512
2023-05-05T11:27:53.596Z,34.4686
2023-05-05T11:28:55.969Z,35.6383
2023-05-05T11:29:58.292Z,34.6935
2023-05-05T11:31:00.685Z,33.8886
2023-05-05T11:32:03.002Z,34.7971
2023-05-05T11:33:05.399Z,34.0024
2023-05-05T11:34:07.720Z,34.8141
2023-05-05T11:35:10.958Z,34.7804
2023-05-05T11:36:12.405Z,34.7151
2023-05-05T11:37:14.759Z,34.5022
2023-05-05T11:38:17.112Z,35.5027
2023-05-05T11:39:19.745Z,35.6195
2023-05-05T11:40:21.881Z,35.7182
2023-05-05T11:41:24.141Z,36.8248
2023-05-05T11:42:26.498Z,35.7101
2023-05-05T11:43:28.830Z,36.0786
2023-05-05T11:44:31.204Z,35.9825
2023-05-05T11:45:33.548Z,36.4066
2023-05-05T11:46:35.958Z,37.4715
2023-05-05T11:47:38.296Z,35.7383
2023-05-05T11:48:40.620Z,36.2005
2023-05-05T11:49:42.984Z,36.8427
2023-05-05T11:50:45.299Z,36.3288
2023-05-05T11:51:47.642Z,36.5119
2023-05-05T11:52:50.004Z,36.0743
2023-05-05T11:53:52.362Z,36.0215
2023-05-05T11:54:54.734Z,37.8656
2023-05-05T11:55:57.132Z,36.9711
2023-05-05T11:56:59.445Z,36.8215
2023-05-05T11:58:01.747Z,36.7341
2023-05-05T11:59:04.125Z,36.2554
2023-05-05T12:00:06.661Z,35.7950
2023-05-05T12:01:08.819Z,36.1584
2023-05-05T12:02:11.178Z,36.7764
2023-05-05T12:03:13.589Z,36.2241
2023-05-05T12:04:16.149Z,36.1054
2023-05-05T12:05:18.221Z,36.9679
2023-05-05T12:06:20.571Z,35.8196
2023-05-05T12:07:22.919Z,36.2812
2023-05-05T12:08:25.290Z,36.4758
2023-05-05T12:09:27.624Z,36.1682
2023-05-05T12:10:29.959Z,35.7445
2023-05-05T12:11:32.357Z,36.5306
2023-05-05T12:12:34.693Z,36.4305
2023-05-05T12:13:37.003Z,35.8763
2023-05-05T12:14:39.367Z,36.1392
2023-05-05T12:15:41.698Z,35.8359
2023-05-05T12:16:44.188Z,36.0204
2023-05-05T12:17:46.439Z,36.2572
2023-05-05T12:18:48.751Z,36.0833
2023-05-05T12:19:51.106Z,35.0691
2023-05-05T12:20:53.437Z,35.7625
2023-05-05T12:21:55.790Z,35.9186
2023-05-05T12:22:58.214Z,37.4025
2023-05-05T12:24:00.467Z,36.3064
2023-05-05T12:25:02.928Z,34.9667
2023-05-05T12:26:05.213Z,35.8400
2023-05-05T12:27:07.605Z,36.1310
2023-05-05T12:28:09.922Z,36.0679
2023-05-05T12:29:12.217Z,36.0266
2023-05-05T12:30:14.621Z,36.2822
2023-05-05T12:31:17.007Z,36.2368
2023-05-05T12:32:19.355Z,36.3728
2023-05-05T12:33:21.634Z,35.0583